Time;durP1;ratioP1;P1;durP2;ratioP2;P2;SDS_P1;SDS_P2;PMS_P1;PMS_P2;Temp;Humidity;BMP_temperature;BMP_pressure;BME280_temperature;BME280_humidity;BME280_pressure;Samples;Min_cycle;Max_cycle;Signal;HPM_P1;HPM_P2
2023/06/08 00:00:23;;;;;;;5.70;5.20;;;15.70;99.90;;;;;;5094211;28;20185;-70
2023/06/08 00:02:49;;;;;;;5.63;5.10;;;15.40;99.90;;;;;;5081055;28;20785;-67
2023/06/08 00:05:16;;;;;;;5.00;4.60;;;15.40;99.90;;;;;;5093993;28;20215;-71
2023/06/08 00:07:42;;;;;;;4.90;4.50;;;15.50;99.90;;;;;;5080018;28;20170;-70
2023/06/08 00:10:10;;;;;;;5.43;4.93;;;15.50;99.90;;;;;;5074280;28;20166;-70
2023/06/08 00:12:37;;;;;;;5.27;4.77;;;15.50;99.90;;;;;;5087508;28;20177;-69
2023/06/08 00:15:05;;;;;;;5.37;4.87;;;15.30;99.90;;;;;;5081547;28;20173;-69
2023/06/08 00:17:31;;;;;;;6.47;5.30;;;15.50;99.90;;;;;;5093655;23;20221;-69
2023/06/08 00:19:56;;;;;;;5.50;5.00;;;15.40;99.90;;;;;;5093688;28;20172;-69
2023/06/08 00:22:22;;;;;;;5.30;4.90;;;15.50;99.90;;;;;;5092645;28;20209;-69
2023/06/08 00:24:48;;;;;;;6.30;5.70;;;15.40;99.90;;;;;;5092027;28;20169;-69
2023/06/08 00:27:13;;;;;;;5.40;4.90;;;15.60;99.90;;;;;;5090634;28;20197;-69
2023/06/08 00:29:39;;;;;;;4.80;4.40;;;15.60;99.90;;;;;;5073139;28;20260;-68
2023/06/08 00:32:05;;;;;;;4.87;4.53;;;15.70;99.90;;;;;;5074295;28;20239;-69
2023/06/08 00:34:31;;;;;;;5.20;4.80;;;15.60;99.90;;;;;;5093211;28;20348;-69
2023/06/08 00:36:56;;;;;;;5.27;4.73;;;15.50;99.90;;;;;;5091781;28;20545;-69
2023/06/08 00:39:22;;;;;;;5.53;5.03;;;15.50;99.90;;;;;;5073128;28;20170;-69
2023/06/08 00:41:48;;;;;;;5.20;4.63;;;15.50;99.90;;;;;;5086507;28;20346;-69
2023/06/08 00:44:13;;;;;;;5.60;5.10;;;15.50;99.90;;;;;;5086051;28;20241;-69
2023/06/08 00:46:39;;;;;;;5.33;4.93;;;15.70;99.90;;;;;;5072218;28;20274;-68
2023/06/08 00:49:07;;;;;;;5.53;5.03;;;15.40;99.90;;;;;;5079401;28;20743;-68
2023/06/08 00:51:39;;;;;;;5.63;5.13;;;15.00;99.90;;;;;;5092591;28;20260;-68
2023/06/08 00:54:05;;;;;;;5.70;4.93;;;15.00;99.90;;;;;;5080594;28;20201;-69
2023/06/08 00:56:34;;;;;;;5.50;5.00;;;14.80;99.90;;;;;;5077423;28;20685;-69
2023/06/08 00:59:02;;;;;;;6.20;5.07;;;14.90;99.90;;;;;;5072567;28;20181;-69
2023/06/08 01:01:29;;;;;;;6.07;5.57;;;15.00;99.90;;;;;;5066029;28;20567;-69
2023/06/08 01:04:07;;;;;;;5.80;5.20;;;15.00;99.90;;;;;;5072326;28;20195;-68
2023/06/08 01:06:44;;;;;;;5.67;5.17;;;15.20;99.90;;;;;;5067802;28;20187;-69
2023/06/08 01:09:33;;;;;;;5.77;5.37;;;15.20;99.90;;;;;;5080712;28;20201;-69
2023/06/08 01:12:28;;;;;;;6.20;5.60;;;15.10;99.90;;;;;;5060286;28;20527;-69
2023/06/08 01:14:59;;;;;;;6.10;5.60;;;15.20;99.90;;;;;;5089269;28;20176;-68
2023/06/08 01:17:35;;;;;;;6.20;5.60;;;15.30;99.90;;;;;;5069468;28;20681;-68
2023/06/08 01:20:10;;;;;;;5.47;5.07;;;15.50;99.90;;;;;;5079522;28;20188;-68
2023/06/08 01:23:09;;;;;;;6.50;5.90;;;15.30;99.90;;;;;;5067797;28;20542;-69
2023/06/08 01:25:36;;;;;;;6.83;6.20;;;15.20;99.90;;;;;;5068749;28;20201;-68
2023/06/08 01:28:12;;;;;;;5.93;5.43;;;15.30;99.90;;;;;;5085429;28;20166;-69
2023/06/08 01:30:42;;;;;;;9.00;5.83;;;15.10;99.90;;;;;;5083988;28;20184;-68
2023/06/08 01:33:29;;;;;;;6.13;5.50;;;14.90;99.90;;;;;;5080669;28;20201;-68
2023/06/08 01:36:06;;;;;;;5.80;5.30;;;14.90;99.90;;;;;;5083629;28;20226;-68
2023/06/08 01:38:50;;;;;;;5.87;5.47;;;14.80;99.90;;;;;;5063770;28;20212;-68
2023/06/08 01:41:31;;;;;;;6.33;5.73;;;14.90;99.90;;;;;;5057163;28;20682;-69
2023/06/08 01:43:59;;;;;;;6.00;5.50;;;14.80;99.90;;;;;;5074635;28;20192;-68
2023/06/08 01:46:28;;;;;;;6.43;5.83;;;14.90;99.90;;;;;;5072352;28;20282;-68
2023/06/08 01:48:58;;;;;;;6.20;5.70;;;14.90;99.90;;;;;;5070157;28;20166;-68
2023/06/08 01:51:25;;;;;;;6.27;5.67;;;14.90;99.90;;;;;;5069166;28;20186;-69
2023/06/08 01:54:00;;;;;;;6.47;5.53;;;15.00;99.90;;;;;;5069636;28;20170;-69
2023/06/08 01:56:33;;;;;;;6.57;5.80;;;15.10;99.90;;;;;;5072163;28;20208;-68
2023/06/08 01:58:59;;;;;;;6.57;5.97;;;15.00;99.90;;;;;;5071598;28;20174;-68
2023/06/08 02:01:25;;;;;;;6.57;5.97;;;14.90;99.90;;;;;;5075145;28;20209;-69
2023/06/08 02:03:50;;;;;;;6.43;5.83;;;14.50;99.90;;;;;;5071257;28;20181;-69
2023/06/08 02:06:17;;;;;;;7.43;6.13;;;14.50;99.90;;;;;;5067790;28;20194;-68
2023/06/08 02:08:42;;;;;;;6.77;6.17;;;14.50;99.90;;;;;;5079972;28;20168;-68
2023/06/08 02:11:09;;;;;;;6.80;6.20;;;14.50;99.90;;;;;;5074262;28;20173;-69
2023/06/08 02:13:39;;;;;;;7.97;5.97;;;14.60;99.90;;;;;;5080301;28;20192;-68
2023/06/08 02:16:05;;;;;;;6.97;6.47;;;14.60;99.90;;;;;;5077185;28;20545;-69
2023/06/08 02:18:30;;;;;;;7.33;6.50;;;14.60;99.90;;;;;;5091533;28;20185;-69
2023/06/08 02:20:56;;;;;;;7.73;5.97;;;14.60;99.90;;;;;;5086973;28;20208;-69
2023/06/08 02:23:21;;;;;;;6.17;5.57;;;14.60;99.90;;;;;;5068975;28;20541;-68
2023/06/08 02:25:50;;;;;;;6.50;5.90;;;14.50;99.90;;;;;;5075179;28;20205;-69
2023/06/08 02:28:16;;;;;;;6.60;6.00;;;14.40;99.90;;;;;;5070755;28;20659;-69
2023/06/08 02:30:41;;;;;;;6.33;5.73;;;14.20;99.90;;;;;;5091236;28;20165;-68
2023/06/08 02:33:07;;;;;;;6.90;6.07;;;14.30;99.90;;;;;;5061408;28;20182;-69
2023/06/08 02:35:33;;;;;;;6.80;6.20;;;14.30;99.90;;;;;;5084837;28;20583;-69
2023/06/08 02:37:59;;;;;;;7.07;6.47;;;14.40;99.90;;;;;;5062228;28;20192;-68
2023/06/08 02:40:25;;;;;;;8.73;7.00;;;14.40;99.90;;;;;;5072983;28;20253;-69
2023/06/08 02:42:50;;;;;;;7.57;6.67;;;14.50;99.90;;;;;;5067425;28;20181;-68
2023/06/08 02:45:16;;;;;;;7.00;6.40;;;14.70;99.90;;;;;;5069853;28;20178;-68
2023/06/08 02:47:41;;;;;;;7.20;6.50;;;14.80;99.90;;;;;;5068774;28;20269;-68
2023/06/08 02:50:07;;;;;;;7.57;6.80;;;14.60;99.90;;;;;;5090170;28;20260;-68
2023/06/08 02:52:34;;;;;;;7.20;6.60;;;14.50;99.90;;;;;;5085448;28;20185;-68
2023/06/08 02:54:59;;;;;;;7.13;6.43;;;14.60;99.90;;;;;;5081335;28;20173;-68
2023/06/08 02:57:25;;;;;;;6.37;5.87;;;14.50;99.90;;;;;;5087125;28;20339;-68
2023/06/08 02:59:50;;;;;;;7.20;6.50;;;14.30;99.90;;;;;;5079257;28;20266;-68
2023/06/08 03:02:16;;;;;;;6.90;6.30;;;14.20;99.90;;;;;;5072946;28;20205;-69
2023/06/08 03:04:43;;;;;;;7.40;6.70;;;14.20;99.90;;;;;;5089653;28;20177;-69
2023/06/08 03:07:10;;;;;;;7.63;6.83;;;14.20;99.90;;;;;;5094323;28;20649;-69
2023/06/08 03:09:35;;;;;;;7.20;6.50;;;14.20;99.90;;;;;;5078634;28;20304;-69
2023/06/08 03:12:02;;;;;;;7.73;7.03;;;14.20;99.90;;;;;;5067807;28;20265;-68
2023/06/08 03:14:29;;;;;;;6.97;6.30;;;14.30;99.90;;;;;;5069776;28;20173;-68
2023/06/08 03:17:03;;;;;;;7.20;6.10;;;14.30;99.90;;;;;;5068962;28;20692;-69
2023/06/08 03:19:30;;;;;;;7.40;6.80;;;14.50;99.90;;;;;;5070876;28;20539;-68
2023/06/08 03:22:00;;;;;;;8.43;7.17;;;14.40;99.90;;;;;;5071042;28;20202;-68
2023/06/08 03:24:31;;;;;;;7.03;6.33;;;14.20;99.90;;;;;;5076052;28;20219;-69
2023/06/08 03:26:58;;;;;;;8.03;7.23;;;14.10;99.90;;;;;;5081971;28;20186;-68
2023/06/08 03:29:24;;;;;;;8.00;6.73;;;14.20;99.90;;;;;;5092044;28;20181;-68
2023/06/08 03:31:50;;;;;;;7.43;6.73;;;14.10;99.90;;;;;;5076512;28;20174;-69
2023/06/08 03:34:16;;;;;;;7.60;6.80;;;14.20;99.90;;;;;;5078138;28;20176;-68
2023/06/08 03:36:43;;;;;;;7.30;6.60;;;14.20;99.90;;;;;;5085141;28;20197;-68
2023/06/08 03:39:09;;;;;;;7.93;7.13;;;14.00;99.90;;;;;;5089992;28;20169;-68
2023/06/08 03:41:35;;;;;;;7.47;6.77;;;14.00;99.90;;;;;;5089046;28;20192;-68
2023/06/08 03:44:01;;;;;;;7.57;6.87;;;14.00;99.90;;;;;;5077488;28;20652;-69
2023/06/08 03:46:27;;;;;;;7.80;7.10;;;14.00;99.90;;;;;;5080935;28;20190;-69
2023/06/08 03:48:52;;;;;;;7.30;6.70;;;14.00;99.90;;;;;;5085992;28;20235;-68
2023/06/08 03:51:21;;;;;;;7.63;6.93;;;14.10;99.90;;;;;;5085859;28;20226;-68
2023/06/08 03:53:46;;;;;;;7.67;6.97;;;14.00;99.90;;;;;;5086639;28;20223;-68
2023/06/08 03:56:12;;;;;;;7.80;7.00;;;14.10;99.90;;;;;;5085909;28;20663;-68
2023/06/08 03:58:38;;;;;;;8.07;7.37;;;14.00;99.90;;;;;;5066160;28;20184;-68
2023/06/08 04:01:04;;;;;;;7.30;6.70;;;14.10;99.90;;;;;;5093855;28;20204;-68
2023/06/08 04:03:29;;;;;;;7.90;7.03;;;14.20;99.90;;;;;;5062635;28;20192;-68
2023/06/08 04:05:56;;;;;;;7.73;7.00;;;14.20;99.90;;;;;;5072109;28;20282;-68
2023/06/08 04:08:22;;;;;;;7.87;7.17;;;14.30;99.90;;;;;;5082013;28;20637;-68
2023/06/08 04:10:48;;;;;;;7.77;7.07;;;14.30;99.90;;;;;;5093710;28;20799;-68
2023/06/08 04:13:13;;;;;;;7.80;7.10;;;14.50;99.90;;;;;;5070320;28;20261;-68
2023/06/08 04:15:39;;;;;;;8.73;7.70;;;14.50;99.90;;;;;;5072733;28;20205;-68
2023/06/08 04:18:05;;;;;;;7.57;6.87;;;14.60;99.90;;;;;;5078328;28;20188;-68
2023/06/08 04:20:32;;;;;;;7.47;6.77;;;14.50;99.90;;;;;;5093407;28;20669;-68
2023/06/08 04:22:58;;;;;;;7.53;6.83;;;14.60;99.90;;;;;;5075853;28;20166;-68
2023/06/08 04:25:25;;;;;;;7.50;6.90;;;14.60;99.90;;;;;;5072644;28;20178;-68
2023/06/08 04:27:52;;;;;;;7.30;6.67;;;14.70;99.90;;;;;;5074586;28;20173;-69
2023/06/08 04:30:18;;;;;;;7.63;6.93;;;14.80;99.90;;;;;;5093569;28;20169;-69
2023/06/08 04:32:43;;;;;;;7.37;6.67;;;14.60;99.90;;;;;;5070254;28;20680;-68
2023/06/08 04:35:09;;;;;;;7.20;6.60;;;14.80;99.90;;;;;;5085191;28;20184;-68
2023/06/08 04:37:35;;;;;;;7.27;6.57;;;14.90;99.90;;;;;;5071565;28;20178;-69
2023/06/08 04:40:01;;;;;;;7.80;7.10;;;15.10;99.90;;;;;;5083517;28;20260;-68
2023/06/08 04:42:27;;;;;;;7.37;6.77;;;15.20;99.90;;;;;;5085632;28;20202;-68
2023/06/08 04:44:53;;;;;;;7.20;6.60;;;15.10;99.90;;;;;;5072746;28;20166;-68
2023/06/08 04:47:19;;;;;;;7.63;6.93;;;15.30;99.90;;;;;;5086575;28;20181;-68
2023/06/08 04:49:44;;;;;;;7.70;7.00;;;15.40;99.90;;;;;;5073200;28;20195;-68
2023/06/08 04:52:13;;;;;;;7.20;6.60;;;15.60;99.90;;;;;;5070917;28;20244;-68
2023/06/08 04:54:39;;;;;;;6.70;6.20;;;16.00;99.90;;;;;;5064326;28;20171;-68
2023/06/08 04:57:08;;;;;;;6.20;5.70;;;16.30;99.90;;;;;;5072809;28;20229;-68
2023/06/08 04:59:37;;;;;;;6.57;5.87;;;16.20;99.90;;;;;;5064731;28;20565;-68
2023/06/08 05:02:03;;;;;;;6.13;5.53;;;16.20;99.90;;;;;;5083875;28;20196;-68
2023/06/08 05:04:29;;;;;;;6.67;5.93;;;16.50;99.90;;;;;;5064928;28;20173;-68
2023/06/08 05:06:55;;;;;;;6.23;5.63;;;16.70;99.90;;;;;;5084858;28;20271;-68
2023/06/08 05:09:20;;;;;;;6.33;5.83;;;17.00;99.90;;;;;;5077970;28;20172;-68
2023/06/08 05:11:47;;;;;;;6.97;6.37;;;17.20;99.90;;;;;;5086000;28;20210;-68
2023/06/08 05:14:13;;;;;;;6.60;6.00;;;;;;;;;;5079458;28;20192;-68
2023/06/08 05:16:38;;;;;;;6.77;6.17;;;16.80;99.90;;;;;;5072600;28;20654;-68
2023/06/08 05:19:07;;;;;;;6.50;5.93;;;17.00;99.90;;;;;;5068543;28;20178;-68
2023/06/08 05:21:33;;;;;;;6.50;6.00;;;17.20;99.90;;;;;;5073209;28;20675;-68
2023/06/08 05:23:59;;;;;;;6.82;6.28;;;17.50;99.90;;;;;;5070334;28;20650;-68
2023/06/08 05:26:25;;;;;;;9.38;5.93;;;17.90;99.90;;;;;;5084718;28;20196;-68
2023/06/08 05:28:51;;;;;;;6.82;6.30;;;18.20;99.90;;;;;;5070151;28;20338;-68
2023/06/08 05:31:16;;;;;;;6.47;5.90;;;18.30;99.90;;;;;;5092311;28;20165;-68
2023/06/08 05:33:42;;;;;;;7.70;6.15;;;18.20;99.90;;;;;;5090393;28;20184;-68
2023/06/08 05:36:07;;;;;;;8.68;6.40;;;18.20;99.90;;;;;;5084909;28;20193;-68
2023/06/08 05:38:33;;;;;;;6.78;6.25;;;18.20;99.90;;;;;;5059199;28;20170;-68
2023/06/08 05:40:59;;;;;;;6.47;5.97;;;18.30;99.90;;;;;;5091923;28;20213;-67
2023/06/08 05:43:24;;;;;;;7.55;6.20;;;18.40;99.90;;;;;;5078597;28;20174;-69
2023/06/08 05:45:50;;;;;;;6.35;5.85;;;18.40;99.90;;;;;;5058325;28;20190;-69
2023/06/08 05:48:16;;;;;;;6.80;5.93;;;18.70;99.90;;;;;;5062622;28;20170;-69
2023/06/08 05:50:41;;;;;;;6.78;6.28;;;19.00;99.90;;;;;;5064996;28;20223;-69
2023/06/08 05:53:07;;;;;;;6.97;6.38;;;19.00;99.90;;;;;;5075797;28;20584;-68
2023/06/08 05:55:33;;;;;;;7.00;6.32;;;18.90;99.90;;;;;;5077372;28;20268;-69
2023/06/08 05:57:58;;;;;;;6.57;5.80;;;19.00;99.90;;;;;;5079224;28;20530;-68
2023/06/08 06:00:24;;;;;;;5.82;5.43;;;19.30;99.90;;;;;;5077592;28;20316;-68
2023/06/08 06:02:49;;;;;;;5.90;5.50;;;19.40;99.90;;;;;;5081664;28;20249;-68
2023/06/08 06:05:15;;;;;;;6.28;5.78;;;19.00;99.90;;;;;;5071325;28;20257;-68
2023/06/08 06:07:41;;;;;;;7.07;6.32;;;18.90;99.90;;;;;;5077852;28;20170;-68
2023/06/08 06:10:07;;;;;;;6.35;5.85;;;18.80;99.90;;;;;;5091743;28;20161;-68
2023/06/08 06:12:33;;;;;;;6.82;6.05;;;18.80;99.90;;;;;;5075849;28;20230;-68
2023/06/08 06:14:58;;;;;;;7.60;7.00;;;18.80;99.90;;;;;;5084654;28;20744;-68
2023/06/08 06:17:24;;;;;;;6.55;5.95;;;18.90;99.90;;;;;;5090194;23;20594;-70
2023/06/08 06:19:50;;;;;;;6.82;6.10;;;18.90;99.90;;;;;;5092397;28;20165;-70
2023/06/08 06:22:16;;;;;;;7.18;6.47;;;19.10;99.90;;;;;;5096046;28;20207;-70
2023/06/08 06:24:42;;;;;;;6.30;5.80;;;19.10;99.90;;;;;;5084054;28;20165;-67
2023/06/08 06:27:07;;;;;;;6.72;6.03;;;19.20;99.90;;;;;;5082378;28;20569;-68
2023/06/08 06:29:34;;;;;;;6.13;5.53;;;19.30;99.90;;;;;;5065149;28;20168;-69
2023/06/08 06:31:59;;;;;;;6.43;5.93;;;19.40;99.90;;;;;;5089599;28;20185;-70
2023/06/08 06:34:25;;;;;;;6.13;5.60;;;19.60;99.90;;;;;;5069356;28;20225;-69
2023/06/08 06:36:51;;;;;;;6.63;6.05;;;19.50;99.90;;;;;;5076519;28;20676;-69
2023/06/08 06:39:18;;;;;;;8.90;6.07;;;19.50;99.90;;;;;;5071621;28;20180;-70
2023/06/08 06:41:43;;;;;;;7.05;6.45;;;19.30;99.90;;;;;;5075773;28;20566;-70
2023/06/08 06:44:09;;;;;;;6.85;6.20;;;19.20;99.90;;;;;;5080272;28;20157;-68
2023/06/08 06:46:35;;;;;;;8.40;6.38;;;19.30;99.90;;;;;;5082975;28;20551;-71
2023/06/08 06:49:00;;;;;;;6.78;6.20;;;19.00;99.90;;;;;;5075339;28;20657;-67
2023/06/08 06:51:26;;;;;;;7.53;6.82;;;19.00;99.90;;;;;;5076048;28;20196;-68
2023/06/08 06:53:51;;;;;;;7.32;6.63;;;19.20;99.90;;;;;;5070577;28;20539;-67
2023/06/08 06:56:17;;;;;;;6.75;6.15;;;19.00;99.90;;;;;;5075284;28;20217;-66
2023/06/08 06:58:44;;;;;;;6.47;5.90;;;19.20;99.90;;;;;;5071430;28;20634;-67
2023/06/08 07:01:11;;;;;;;8.60;6.30;;;19.20;99.90;;;;;;5075342;28;20197;-66
2023/06/08 07:03:40;;;;;;;7.88;6.32;;;19.40;99.90;;;;;;5078585;28;20165;-67
2023/06/08 07:06:06;;;;;;;6.95;6.35;;;19.20;99.90;;;;;;5064148;28;20673;-67
2023/06/08 07:08:33;;;;;;;7.32;6.20;;;19.30;99.90;;;;;;5086969;28;20211;-66
2023/06/08 07:10:59;;;;;;;6.43;5.93;;;19.30;99.90;;;;;;5088261;28;20268;-66
2023/06/08 07:13:25;;;;;;;7.10;6.43;;;19.40;99.90;;;;;;5069715;28;20266;-67
2023/06/08 07:15:50;;;;;;;7.65;6.13;;;19.50;99.90;;;;;;5049809;28;20221;-67
2023/06/08 07:18:16;;;;;;;6.80;6.28;;;19.10;99.90;;;;;;5065503;28;20607;-66
2023/06/08 07:20:42;;;;;;;7.95;7.25;;;19.20;99.90;;;;;;5067492;28;20220;-66
2023/06/08 07:23:07;;;;;;;7.25;6.60;;;19.10;99.90;;;;;;5071733;28;20182;-67
2023/06/08 07:25:33;;;;;;;8.13;7.43;;;18.90;99.90;;;;;;5087868;28;20531;-67
2023/06/08 07:27:58;;;;;;;11.00;7.97;;;18.70;99.90;;;;;;5073222;28;20203;-67
2023/06/08 07:30:24;;;;;;;8.70;7.90;;;18.60;99.90;;;;;;5067008;28;20177;-66
2023/06/08 07:32:51;;;;;;;8.93;8.03;;;18.40;99.90;;;;;;5074570;28;20248;-66
2023/06/08 07:35:17;;;;;;;11.40;8.60;;;18.20;99.90;;;;;;5080996;28;20187;-66
2023/06/08 07:37:42;;;;;;;9.80;9.00;;;18.20;99.90;;;;;;5094837;28;20535;-67
2023/06/08 07:40:08;;;;;;;9.50;8.63;;;18.20;99.90;;;;;;5084019;28;20188;-66
2023/06/08 07:42:34;;;;;;;10.70;9.70;;;18.20;99.90;;;;;;5068412;28;20247;-65
2023/06/08 07:45:00;;;;;;;11.20;9.10;;;18.30;99.90;;;;;;5062947;28;20176;-66
2023/06/08 07:47:26;;;;;;;10.37;8.33;;;18.60;99.90;;;;;;5094737;28;20242;-66
2023/06/08 07:49:52;;;;;;;9.20;8.33;;;18.80;99.90;;;;;;5095152;28;20207;-67
2023/06/08 07:52:18;;;;;;;8.73;7.87;;;18.90;99.90;;;;;;5087708;28;20186;-66
2023/06/08 07:54:43;;;;;;;10.07;7.90;;;18.80;99.90;;;;;;5055956;28;20188;-67
2023/06/08 07:57:09;;;;;;;9.23;8.13;;;19.00;99.90;;;;;;5081442;28;20554;-66
2023/06/08 07:59:34;;;;;;;7.95;7.25;;;19.20;99.90;;;;;;5076474;28;20645;-66
2023/06/08 08:02:00;;;;;;;8.38;7.60;;;19.20;99.90;;;;;;5054558;28;20205;-66
2023/06/08 08:04:25;;;;;;;8.82;7.88;;;19.40;99.90;;;;;;5085611;28;20177;-67
2023/06/08 08:06:51;;;;;;;8.45;7.35;;;19.60;99.90;;;;;;5074214;28;20190;-66
2023/06/08 08:09:16;;;;;;;8.63;7.55;;;19.60;99.90;;;;;;5087839;28;20173;-67
2023/06/08 08:11:42;;;;;;;9.30;8.45;;;19.60;99.90;;;;;;5063453;28;20260;-67
2023/06/08 08:14:09;;;;;;;8.25;7.55;;;19.60;99.90;;;;;;5094623;28;20188;-67
2023/06/08 08:16:38;;;;;;;10.38;8.73;;;19.70;99.90;;;;;;5087449;28;20220;-66
2023/06/08 08:19:03;;;;;;;8.95;8.13;;;19.80;99.90;;;;;;5074012;28;20181;-67
2023/06/08 08:21:29;;;;;;;8.60;7.80;;;20.00;99.90;;;;;;5081834;28;20664;-66
2023/06/08 08:23:54;;;;;;;8.75;8.05;;;20.00;99.90;;;;;;5072537;28;20657;-67
2023/06/08 08:26:21;;;;;;;8.50;7.70;;;20.00;99.90;;;;;;5074125;28;20194;-67
2023/06/08 08:28:46;;;;;;;8.27;7.50;;;20.20;99.90;;;;;;5073964;28;20205;-67
2023/06/08 08:31:12;;;;;;;7.93;7.13;;;20.30;99.90;;;;;;5073859;28;20201;-67
2023/06/08 08:33:38;;;;;;;7.93;7.22;;;20.40;99.90;;;;;;5065426;28;20179;-66
2023/06/08 08:36:04;;;;;;;8.88;7.10;;;20.50;99.90;;;;;;5075199;28;20192;-67
2023/06/08 08:38:30;;;;;;;7.65;6.95;;;20.60;99.90;;;;;;5080471;28;20645;-66
2023/06/08 08:41:05;;;;;;;7.60;6.97;;;20.70;99.90;;;;;;5086834;28;20196;-67
2023/06/08 08:43:57;;;;;;;7.90;6.85;;;20.90;99.90;;;;;;5088156;28;20176;-67
2023/06/08 08:46:25;;;;;;;7.25;6.65;;;21.00;99.90;;;;;;5074946;28;20208;-67
2023/06/08 08:48:53;;;;;;;7.50;6.80;;;20.90;99.90;;;;;;5086833;28;20166;-66
2023/06/08 08:51:19;;;;;;;7.65;6.95;;;21.00;99.90;;;;;;5085947;28;20256;-66
2023/06/08 08:53:50;;;;;;;7.78;7.00;;;21.00;99.90;;;;;;5079618;28;20732;-66
2023/06/08 08:56:25;;;;;;;7.68;6.60;;;21.00;99.90;;;;;;5093578;28;20196;-67
2023/06/08 08:58:52;;;;;;;7.07;6.47;;;21.10;99.90;;;;;;5085716;28;20195;-67
2023/06/08 09:01:18;;;;;;;7.10;6.50;;;;;;;;;;5086500;28;20236;-66
2023/06/08 09:03:44;;;;;;;6.85;6.25;;;21.30;99.90;;;;;;5080784;28;20177;-67
2023/06/08 09:06:10;;;;;;;7.85;7.07;;;21.50;99.90;;;;;;5079220;28;20190;-66
2023/06/08 09:08:36;;;;;;;8.00;6.20;;;21.50;99.90;;;;;;5092900;28;20188;-67
2023/06/08 09:11:06;;;;;;;7.22;6.53;;;21.60;99.90;;;;;;5079287;28;20185;-67
2023/06/08 09:13:33;;;;;;;7.53;6.72;;;21.50;99.90;;;;;;5092866;28;20173;-66
2023/06/08 09:16:14;;;;;;;7.10;6.40;;;21.60;99.90;;;;;;5076355;28;20618;-67
2023/06/08 09:18:41;;;;;;;6.70;6.10;;;21.70;99.90;;;;;;5083321;28;20193;-66
2023/06/08 09:21:27;;;;;;;6.70;6.10;;;21.70;99.90;;;;;;5079391;28;20283;-67
2023/06/08 09:24:06;;;;;;;6.45;5.85;;;21.80;99.90;;;;;;5079041;28;20181;-67
2023/06/08 09:26:32;;;;;;;6.25;5.75;;;22.00;99.90;;;;;;5083920;28;20196;-67
2023/06/08 09:29:03;;;;;;;5.72;5.32;;;22.10;99.90;;;;;;5074446;28;20174;-67
2023/06/08 09:31:30;;;;;;;5.95;5.45;;;22.30;99.90;;;;;;5083266;28;20510;-67
2023/06/08 09:34:12;;;;;;;6.07;5.38;;;22.50;99.90;;;;;;5072820;28;20252;-67
2023/06/08 09:36:38;;;;;;;5.72;5.22;;;22.50;99.90;;;;;;5083655;28;20196;-67
2023/06/08 09:39:05;;;;;;;5.75;5.25;;;23.00;99.90;;;;;;5079068;28;20177;-67
2023/06/08 09:41:32;;;;;;;6.13;5.60;;;;;;;;;;5092736;28;20661;-67
2023/06/08 09:43:58;;;;;;;5.50;5.10;;;23.30;99.90;;;;;;5087445;28;20180;-66
2023/06/08 09:46:35;;;;;;;7.90;5.50;;;23.50;99.90;;;;;;5084063;28;20570;-67
2023/06/08 09:49:03;;;;;;;5.95;5.47;;;23.60;99.90;;;;;;5067942;28;20169;-66
2023/06/08 09:51:32;;;;;;;5.32;4.82;;;24.40;99.90;;;;;;5085905;28;20183;-67
2023/06/08 09:53:59;;;;;;;5.40;5.00;;;24.50;99.90;;;;;;5066904;28;20235;-68
2023/06/08 09:56:27;;;;;;;5.50;5.00;;;25.10;99.90;;;;;;5091973;28;20213;-70
2023/06/08 09:58:58;;;;;;;6.38;5.88;;;25.30;99.90;;;;;;5080455;28;20165;-70
2023/06/08 10:01:40;;;;;;;5.85;5.28;;;25.10;99.90;;;;;;5079300;28;20197;-70
2023/06/08 10:04:23;;;;;;;5.90;5.40;;;25.10;99.90;;;;;;5092281;28;20168;-71
2023/06/08 10:06:56;;;;;;;6.13;5.53;;;24.80;99.90;;;;;;5060952;28;20197;-70
2023/06/08 10:09:27;;;;;;;6.22;5.63;;;25.10;99.90;;;;;;5059915;28;20184;-70
2023/06/08 10:11:55;;;;;;;5.40;4.90;;;24.70;99.90;;;;;;5072073;28;20245;-71
2023/06/08 10:14:23;;;;;;;5.95;5.45;;;24.80;99.90;;;;;;5074234;28;20169;-70
2023/06/08 10:16:49;;;;;;;6.35;5.80;;;24.50;99.90;;;;;;5082739;28;20194;-69
2023/06/08 10:19:17;;;;;;;5.22;4.65;;;24.10;99.90;;;;;;5074050;28;20203;-69
2023/06/08 10:21:44;;;;;;;6.15;5.40;;;24.60;99.90;;;;;;5092440;28;20205;-71
2023/06/08 10:24:11;;;;;;;5.70;5.22;;;25.10;99.90;;;;;;5074909;28;20166;-70
2023/06/08 10:26:37;;;;;;;5.30;4.80;;;25.20;99.90;;;;;;5081223;28;20197;-71
2023/06/08 10:29:10;;;;;;;4.68;4.38;;;24.90;99.90;;;;;;5075089;28;20719;-70
2023/06/08 10:31:39;;;;;;;5.60;5.10;;;24.80;99.90;;;;;;5082646;28;20714;-68
2023/06/08 10:34:08;;;;;;;5.53;5.03;;;24.80;99.90;;;;;;5090300;28;20499;-68
2023/06/08 10:36:36;;;;;;;5.38;4.97;;;25.10;99.90;;;;;;5092427;28;20227;-69
2023/06/08 10:39:10;;;;;;;5.10;4.60;;;24.90;99.90;;;;;;5087548;28;20657;-69
2023/06/08 10:41:45;;;;;;;4.80;4.18;;;25.20;99.90;;;;;;5072026;28;20200;-68
2023/06/08 10:44:29;;;;;;;5.05;4.60;;;25.90;99.90;;;;;;5085057;28;20177;-70
2023/06/08 10:47:06;;;;;;;4.70;4.30;;;26.30;99.90;;;;;;5051977;28;20277;-68
2023/06/08 10:49:39;;;;;;;3.97;3.70;;;26.50;99.90;;;;;;5082633;28;20169;-69
2023/06/08 10:52:06;;;;;;;4.93;4.53;;;26.40;99.90;;;;;;5073205;28;20665;-69
2023/06/08 10:54:57;;;;;;;4.45;4.10;;;26.40;99.90;;;;;;5065520;28;20180;-68
2023/06/08 10:57:44;;;;;;;4.35;3.95;;;26.20;99.90;;;;;;5071439;28;20190;-69
2023/06/08 11:00:25;;;;;;;4.53;4.20;;;26.60;99.90;;;;;;5076801;28;20172;-68
2023/06/08 11:02:52;;;;;;;4.47;4.07;;;26.40;99.90;;;;;;5077887;28;20200;-67
2023/06/08 11:05:18;;;;;;;4.00;3.70;;;26.40;99.90;;;;;;5091715;28;20172;-68
2023/06/08 11:07:44;;;;;;;4.18;3.88;;;26.80;99.90;;;;;;5094483;28;20181;-68
2023/06/08 11:10:10;;;;;;;4.05;3.75;;;27.10;99.90;;;;;;5088347;28;20178;-68
2023/06/08 11:12:36;;;;;;;4.10;3.80;;;26.90;99.90;;;;;;5076060;28;20247;-70
2023/06/08 11:15:01;;;;;;;4.28;3.90;;;26.80;99.90;;;;;;5075631;28;20257;-67
2023/06/08 11:17:27;;;;;;;3.47;3.25;;;26.60;99.90;;;;;;5075610;28;20228;-68
2023/06/08 11:19:53;;;;;;;4.00;3.60;;;26.80;97.10;;;;;;5065163;28;20169;-68
2023/06/08 11:22:21;;;;;;;4.63;4.18;;;26.80;98.80;;;;;;5068055;28;20194;-69
2023/06/08 11:24:47;;;;;;;3.45;3.25;;;26.70;99.30;;;;;;5082595;28;20161;-68
2023/06/08 11:27:17;;;;;;;3.88;3.33;;;26.80;99.80;;;;;;5081554;28;20194;-69
2023/06/08 11:29:46;;;;;;;3.55;3.35;;;27.00;99.70;;;;;;5064056;28;20173;-69
2023/06/08 11:32:15;;;;;;;3.85;3.55;;;27.30;92.00;;;;;;5086211;28;20584;-67
2023/06/08 11:34:45;;;;;;;3.47;3.22;;;27.30;91.60;;;;;;5083276;28;20196;-69
2023/06/08 11:37:16;;;;;;;3.53;3.22;;;27.10;89.40;;;;;;5081857;28;20251;-68
2023/06/08 11:39:45;;;;;;;3.28;3.08;;;27.40;85.40;;;;;;5085698;28;20176;-69
2023/06/08 11:42:11;;;;;;;3.35;3.15;;;27.70;92.40;;;;;;5088489;28;20662;-67
2023/06/08 11:44:36;;;;;;;3.28;3.08;;;27.20;93.60;;;;;;5085835;28;20207;-68
2023/06/08 11:47:06;;;;;;;3.42;3.13;;;27.50;93.60;;;;;;5058995;28;20190;-69
2023/06/08 11:49:53;;;;;;;3.60;3.40;;;27.70;92.20;;;;;;5075117;28;20174;-68
2023/06/08 11:52:22;;;;;;;3.28;3.08;;;27.70;80.90;;;;;;5082171;28;20181;-69
2023/06/08 11:54:52;;;;;;;3.63;3.38;;;27.80;73.60;;;;;;5077479;28;20170;-68
2023/06/08 11:57:19;;;;;;;3.40;3.17;;;27.30;76.50;;;;;;5074422;28;20196;-68
2023/06/08 11:59:45;;;;;;;3.67;3.33;;;27.40;82.10;;;;;;5069615;28;20600;-67
2023/06/08 12:02:11;;;;;;;3.35;3.05;;;28.10;77.10;;;;;;5074593;28;20189;-68
2023/06/08 12:04:37;;;;;;;3.30;3.00;;;27.80;74.70;;;;;;5087774;28;20219;-66
2023/06/08 12:07:10;;;;;;;3.53;3.22;;;27.90;76.90;;;;;;5074133;28;20740;-68
2023/06/08 12:09:37;;;;;;;3.47;3.13;;;28.40;74.80;;;;;;5087460;28;20166;-68
2023/06/08 12:12:10;;;;;;;3.58;3.35;;;28.20;84.60;;;;;;5083691;28;20219;-67
2023/06/08 12:14:46;;;;;;;3.63;3.38;;;28.20;83.30;;;;;;5094237;28;20177;-69
2023/06/08 12:19:52;;;;;;;3.58;3.28;;;29.10;75.10;;;;;;5030614;28;20568;-69
2023/06/08 12:22:18;;;;;;;3.42;3.22;;;28.70;67.30;;;;;;5049344;28;20237;-69
2023/06/08 12:24:44;;;;;;;3.58;3.33;;;28.80;61.80;;;;;;5033860;28;20258;-69
2023/06/08 12:27:10;;;;;;;3.30;3.10;;;28.90;59.50;;;;;;5033845;28;20273;-70
2023/06/08 12:29:38;;;;;;;3.20;2.88;;;28.70;63.80;;;;;;5033899;28;20174;-69
2023/06/08 12:32:05;;;;;;;3.55;3.35;;;29.00;55.20;;;;;;5033827;28;20167;-69
2023/06/08 12:34:32;;;;;;;3.20;3.00;;;28.90;54.40;;;;;;5033711;28;20665;-68
2023/06/08 12:36:58;;;;;;;3.25;2.70;;;28.60;54.50;;;;;;5033950;28;20547;-67
2023/06/08 12:39:23;;;;;;;2.97;2.78;;;28.60;51.00;;;;;;5033712;28;20262;-68
2023/06/08 12:41:49;;;;;;;2.80;2.60;;;28.70;53.50;;;;;;5033497;28;20198;-67
2023/06/08 12:44:15;;;;;;;4.57;3.25;;;28.40;51.30;;;;;;5032333;28;20175;-70
2023/06/08 12:46:40;;;;;;;3.72;2.75;;;29.00;50.70;;;;;;5033528;28;20193;-68
2023/06/08 12:49:06;;;;;;;3.50;3.30;;;28.60;51.90;;;;;;5033611;28;20201;-69
2023/06/08 12:51:32;;;;;;;3.35;3.05;;;28.60;51.10;;;;;;5033889;28;20170;-66
2023/06/08 12:53:58;;;;;;;2.85;2.65;;;28.80;55.10;;;;;;5052940;28;20174;-67